Latest Coastal Weather Observations for Marion Reef

IDQ60701

Issued at 12:21 am EST Sunday 6 September 2015 (issued every 10 minutes, with the page automatically refreshed every 10 minutes)

About coastal observations | Map of coastal stations | Coastal observations for QLD | Marine services | Other Formats
Station Details ID: 200704 Name: MARION REEF Lat: -19.10 Lon: 152.39 Height: 2.0 m
Data from the previous 72 hours. | See also: Recent months for locations in Queensland
Date/Time
EST
Temp

°C
Wind Pressure Rain
since 9am
mm
Weather Cloud Vis
km
Sea
Height
m
Swell
Dir
 
Speed
knots
Gust
knots
hPa Trend Height
m
Period
s
Dir
06/12:00am 22.0 SE 13 18 1018.4 - - - - - - - - -
 
Date/Time
EST
Temp

°C
Wind Pressure Rain
since 9am
mm
Weather Cloud Vis
km
Sea
Height
m
Swell
Dir
 
Speed
knots
Gust
knots
hPa Trend Height
m
Period
s
Dir
05/11:30pm 21.9 SE 14 17 1018.8 - - - - - - - - -
05/11:00pm 22.1 SE 15 19 1018.7 - - - - - - - - -
05/10:30pm 22.4 ESE 12 17 1019.0 - - - - - - - - -
05/10:00pm 22.4 SE 13 16 1018.9 - - - - - - - - -
05/09:30pm 22.2 SSE 12 16 1018.9 - - - - - - - - -
05/09:00pm 22.5 SSE 10 13 1018.7 - - - - - - - - -
05/08:30pm 22.5 SSE 11 14 1018.6 - - - - - - - - -
05/08:00pm 22.3 SSE 13 16 1018.3 - - - - - - - - -
05/07:30pm 22.3 SE 10 14 1018.1 - - - - - - - - -
05/07:00pm 22.3 SSE 10 14 1017.9 - - - - - - - - -
05/06:30pm 22.4 SE 10 13 1017.4 - - - - - - - - -
05/06:00pm 22.5 SE 12 16 1017.1 - - - - - - - - -
05/05:30pm 22.5 SSE 6 8 1017.0 - - - - - - - - -
05/05:00pm 22.5 SSE 9 12 1016.6 - - - - - - - - -
05/04:30pm 22.5 S 10 12 1016.5 - - - - - - - - -
05/04:00pm 22.7 SSE 8 11 1016.3 - - - - - - - - -
05/03:30pm 22.6 S 9 10 1016.3 - - - - - - - - -
05/03:00pm 22.5 SSE 9 11 1016.2 - - - - - - - - -
05/02:30pm 22.5 SSE 9 12 1016.5 - - - - - - - - -
05/02:00pm 22.5 SSE 9 11 1016.6 - - - - - - - - -
05/01:30pm 22.6 SSE 9 11 1016.9 - - - - - - - - -
05/01:00pm 22.7 SSE 9 12 1017.0 - - - - - - - - -
05/12:30pm 22.6 S 10 12 1017.4 - - - - - - - - -
05/12:00pm 22.7 S 10 12 1017.6 - - - - - - - - -
05/11:30am 22.6 S 11 13 1018.3 - - - - - - - - -
05/11:00am 22.5 S 11 14 1018.5 - - - - - - - - -
05/10:30am 22.6 SSE 11 15 1018.9 - - - - - - - - -
05/10:00am 22.6 S 12 15 1019.0 - - - - - - - - -
05/09:30am 22.8 SSE 11 14 1019.0 - - - - - - - - -
05/09:00am 22.5 SSE 12 14 1018.8 - - - - - - - - -
05/08:30am 22.4 SSE 11 14 1018.7 - - - - - - - - -
05/08:00am 22.3 SSE 12 14 1018.5 - - - - - - - - -
05/07:30am 22.2 S 10 13 1018.4 - - - - - - - - -
05/07:00am 22.3 SSE 9 12 1018.0 - - - - - - - - -
05/06:30am 22.2 SE 8 13 1017.8 - - - - - - - - -
05/06:00am 22.2 SSE 12 14 1017.4 - - - - - - - - -
05/05:30am 22.2 SSE 10 14 1017.2 - - - - - - - - -
05/05:00am 22.3 SSE 9 11 1016.9 - - - - - - - - -
05/04:30am 22.3 ESE 8 10 1016.8 - - - - - - - - -
05/04:00am 22.7 SSE 8 10 1016.6 - - - - - - - - -
05/03:30am 22.7 SE 7 10 1016.7 - - - - - - - - -
05/03:00am 22.5 SE 9 12 1016.6 - - - - - - - - -
05/02:30am 22.5 SE 8 10 1016.9 - - - - - - - - -
05/02:00am 22.9 SSE 9 12 1017.0 - - - - - - - - -
05/01:30am 22.9 SE 10 12 1017.5 - - - - - - - - -
05/01:00am 22.9 SE 10 13 1017.6 - - - - - - - - -
05/12:30am 22.9 SE 12 15 1018.0 - - - - - - - - -
05/12:00am 22.9 SE 12 15 1018.2 - - - - - - - - -
 
Date/Time
EST
Temp

°C
Wind Pressure Rain
since 9am
mm
Weather Cloud Vis
km
Sea
Height
m
Swell
Dir
 
Speed
knots
Gust
knots
hPa Trend Height
m
Period
s
Dir
04/11:30pm 23.0 SE 14 15 1018.5 - - - - - - - - -
04/11:00pm 22.7 SE 15 17 1018.5 - - - - - - - - -
04/10:30pm 23.3 SE 14 16 1018.4 - - - - - - - - -
04/10:00pm 23.2 SE 15 18 1018.3 - - - - - - - - -
04/09:30pm 23.2 SE 15 17 1018.3 - - - - - - - - -
04/09:00pm 23.4 SE 14 17 1018.0 - - - - - - - - -
04/08:30pm 23.4 SE 14 16 1017.9 - - - - - - - - -
04/08:00pm 23.4 SE 14 18 1017.5 - - - - - - - - -
04/07:30pm 23.6 SE 14 17 1017.2 - - - - - - - - -
04/07:00pm 23.6 SSE 14 15 1016.8 - - - - - - - - -
04/06:30pm 23.6 SSE 14 16 1016.3 - - - - - - - - -
04/06:00pm 23.5 SSE 14 16 1016.0 - - - - - - - - -
04/05:30pm 23.8 SSE 14 16 1015.9 - - - - - - - - -
04/05:00pm 23.8 SSE 14 17 1015.7 - - - - - - - - -
04/04:30pm 23.9 SSE 13 16 1015.5 - - - - - - - - -
04/04:00pm 23.9 SSE 13 16 1015.2 - - - - - - - - -
04/03:30pm 23.8 SSE 13 15 1015.1 - - - - - - - - -
04/03:00pm 24.2 SSE 13 16 1014.9 - - - - - - - - -
04/02:30pm 23.8 S 14 16 1015.0 - - - - - - - - -
04/02:00pm 24.1 SSE 14 16 1015.2 - - - - - - - - -
04/01:30pm 24.6 S 14 17 1015.5 - - - - - - - - -
04/01:00pm 24.5 S 15 17 1015.6 - - - - - - - - -
04/12:30pm 24.6 S 15 17 1016.0 - - - - - - - - -
04/12:00pm 24.5 S 14 15 1016.2 - - - - - - - - -
04/11:30am 24.5 S 13 16 1016.8 - - - - - - - - -
04/11:00am 24.4 S 13 16 1017.0 - - - - - - - - -
04/10:30am 24.1 SSW 12 14 1017.5 - - - - - - - - -
04/10:00am 24.0 SSW 12 14 1017.6 - - - - - - - - -
04/09:30am 24.4 SW 12 14 1017.6 - - - - - - - - -
04/09:00am 24.3 SW 12 14 1017.5 - - - - - - - - -
04/08:30am 23.7 SW 12 14 1017.4 - - - - - - - - -
04/08:00am 24.0 W 9 11 1017.3 - - - - - - - - -
04/07:30am 23.6 W 11 12 1017.1 - - - - - - - - -
04/07:00am 23.8 W 10 11 1016.8 - - - - - - - - -
04/06:30am 23.6 W 10 11 1016.7 - - - - - - - - -
04/06:00am 23.6 W 10 11 1016.4 - - - - - - - - -
04/05:30am 23.4 W 11 12 1016.2 - - - - - - - - -
04/05:00am 23.4 W 10 12 1015.8 - - - - - - - - -
04/04:30am 23.4 WNW 10 11 1015.9 - - - - - - - - -
04/04:00am 23.5 WNW 9 11 1015.8 - - - - - - - - -
04/03:30am 23.4 W 10 12 1016.1 - - - - - - - - -
04/03:00am 23.4 W 10 13 1016.0 - - - - - - - - -
04/02:30am 23.1 NW 11 13 1016.1 - - - - - - - - -
04/02:00am 23.3 NW 11 14 1015.9 - - - - - - - - -
04/01:30am 23.2 NNW 11 14 1016.1 - - - - - - - - -
04/01:00am 23.1 NNW 12 15 1016.1 - - - - - - - - -
04/12:30am 23.4 N 11 14 1016.4 - - - - - - - - -
04/12:00am 23.1 N 11 13 1016.4 - - - - - - - - -
 
Date/Time
EST
Temp

°C
Wind Pressure Rain
since 9am
mm
Weather Cloud Vis
km
Sea
Height
m
Swell
Dir
 
Speed
knots
Gust
knots
hPa Trend Height
m
Period
s
Dir
03/11:30pm 23.5 N 12 15 1016.6 - - - - - - - - -
03/11:00pm 23.2 N 12 15 1016.8 - - - - - - - - -
03/10:30pm 23.5 N 13 15 1016.8 - - - - - - - - -
03/10:00pm 23.5 N 14 16 1016.7 - - - - - - - - -
03/09:30pm 23.8 N 13 14 1017.1 - - - - - - - - -
03/09:00pm 23.6 N 12 14 1017.0 - - - - - - - - -
03/08:30pm 23.5 NNW 9 11 1017.2 - - - - - - - - -
03/08:00pm 23.7 NNW 9 10 1017.0 - - - - - - - - -
03/07:30pm 23.5 NW 8 9 1016.9 - - - - - - - - -
03/07:00pm 23.5 NW 8 9 1016.6 - - - - - - - - -
03/06:30pm 23.5 WNW 9 11 1016.3 - - - - - - - - -
03/06:00pm 23.8 WNW 8 10 1016.0 - - - - - - - - -
03/05:30pm 23.9 WNW 8 10 1015.9 - - - - - - - - -
03/05:00pm 24.4 W 9 10 1015.8 - - - - - - - - -
03/04:30pm 24.6 W 8 10 1015.9 - - - - - - - - -
03/04:00pm 24.6 W 8 9 1015.9 - - - - - - - - -
03/03:30pm 24.2 W 9 11 1016.2 - - - - - - - - -
03/03:00pm 24.0 W 10 13 1016.1 - - - - - - - - -
03/02:30pm 24.5 W 11 13 1016.3 - - - - - - - - -
03/02:00pm 24.3 WNW 11 13 1016.5 - - - - - - - - -
03/01:30pm 23.7 NW 11 12 1016.7 - - - - - - - - -
03/01:00pm 23.8 NW 11 12 1016.8 - - - - - - - - -
03/12:30pm 24.0 NNW 11 13 1017.0 - - - - - - - - -
03/12:00pm 23.9 N 12 14 1017.2 - - - - - - - - -
03/11:30am 23.5 N 12 14 1017.8 - - - - - - - - -
03/11:00am 23.5 N 13 15 1018.0 - - - - - - - - -
03/10:30am 23.5 N 13 16 1018.4 - - - - - - - - -
03/10:00am 23.3 N 14 17 1018.6 - - - - - - - - -
03/09:30am 23.2 NNE 14 16 1018.7 - - - - - - - - -
03/09:00am 23.0 NNE 14 16 1018.6 - - - - - - - - -
03/08:30am 23.3 NNE 14 16 1018.4 - - - - - - - - -
03/08:00am 23.2 NNE 14 16 1018.1 - - - - - - - - -
03/07:30am 23.1 NE 13 15 1018.0 - - - - - - - - -
03/07:00am 23.0 NE 13 16 1017.7 - - - - - - - - -
03/06:30am 22.3 NE 14 17 1017.4 - - - - - - - - -
03/06:00am 22.3 NE 14 17 1016.9 - - - - - - - - -
03/05:30am 22.3 NE 16 19 1016.5 - - - - - - - - -
03/05:00am 22.4 NNE 18 21 1015.9 - - - - - - - - -
03/04:30am 22.4 NNE 17 20 1015.8 - - - - - - - - -
03/04:00am 22.4 NNE 16 19 1015.9 - - - - - - - - -
03/03:30am 22.2 NNE 15 17 1016.2 - - - - - - - - -
03/03:00am 22.1 NE 14 16 1016.1 - - - - - - - - -
03/02:30am 22.3 ENE 11 13 1016.3 - - - - - - - - -
03/02:00am 22.3 ENE 10 11 1016.5 - - - - - - - - -
03/01:30am 22.5 ENE 9 11 1016.7 - - - - - - - - -
03/01:00am 22.3 ENE 10 12 1016.8 - - - - - - - - -
03/12:30am 22.5 ENE 10 11 1017.3 - - - - - - - - -

Other Formats:

Comma delimited format used in spreadsheet applications
http://www.bom.gov.au/fwo/IDQ60701/IDQ60701.94298.axf

JavaScript Object Notation format (JSON) in row-major order
http://www.bom.gov.au/fwo/IDQ60701/IDQ60701.94298.json